Aérodrome :
LOGIN :

S'inscrire | Disclaimer

   EN    FR    IT 

 










Légende :    VFR   VFR Marginal   IFR   IFR Intensif   IFR Très Intensif
Visi : 
Plafond : 
>= 8 km
>= 3000ft
5 à 8 km
1000 à 3000 ft
1500m à 5 km
500 à 1000 ft
800 à 1500m
200 à 500 ft
< 800m
< 200 ft
Symboles :   Orages  Brouillard  Fortes neiges  Fortes précipitations  Vent > 20 kt
SIGMETs :   Divers  Orages  Givrage  Turbulence  Onde Orograph.  Cendres Volcan.







- Altitude de l'aérodrome : 659 ft
- Code IATA : LYN
- Voir les cartes d'approche


LFLY - Lyon Bron

DERNIER METAR :
  • 292100Z AUTO 16008KT CAVOK 12/02 Q1012 NOSIG

METARs EXPIRÉS :
  • 292030Z AUTO 15006KT CAVOK 13/02 Q1012 NOSIG
  • 292000Z AUTO 15006KT CAVOK 14/02 Q1012 NOSIG
  • 291930Z AUTO 14005KT CAVOK 14/03 Q1012 NOSIG
  • 291900Z AUTO 13005KT CAVOK 15/02 Q1011 NOSIG
  • 291830Z AUTO 14006KT CAVOK 16/02 Q1011 NOSIG

TAF TAF LFLY
Valide du 29 à 18h jusqu'au 30 à 18h UTC


291700Z 2918/3018 16008KT CAVOK
BECMG 3008/3010 18015G25KT
ATIS : +33 4 72 15 87 96
Pas de NOTAMs connus pour ce terrain.
1 SIGMET publié pour la FIR Marseille (LFMM) :
 
Turbulence forte
LFMM SIGMET 1 VALID 300000/300400 LFPW
LFMM MARSEILLE FIR/UIR SEV TURB FCST WI N4315 E00230 - N4430 E00245 - N4530 E00430 - N4530 E00500 SFC/FL060 STNR INTSF=



MET'MAP, la Météo Aéronautique d'un coup d'oeil ! - Copyright ORBIFLY Décembre 2007 - Disclaimer

ORBIFLY MET'MAP TEAM :

Programmation & Développement : Alexandra Zaïnal
Conception & Développement : Baudouin d'Aumeries
Co-Programmation & Développement : Marc-Olivier Méhu
Soutien technique & logistique : Manuel Goepfert

Contact : metmap@orbifly.com




SOURCES & CREDITS :

   NOAA